Shields, Kansas
Current Conditions -  °F | °C
As of 7:54 PM on Saturday 20 Dec 2014 (Local Time) from KGCK Reporting Station
Clear Clear  
Wind Chill: 25°   Ceiling: Unl
Heat Index: 34°   Visibility: 10mi
Dew Point: 33°   Wind: 12mph
Humidity: 96%   Direction: 170°S
Pressure: 30"   Gusts: NA
Location:  38.4812°N, 100.393°W
Report Text: KGCK 210154Z 17010KT 10SM CLR 01/01 A3000 RMK AO2 SLP182 T00110006
Loading
Personal Weather Stations






























Interactive Weather Map New forecast layout! Learn more

10-Day Weather Forecast

Advertisements
Track Severe Weather on mobile